Details From LEIB - Ibiza
To LEAM - Almeria
Flight Number -
Tags Generated
Created
Modified
Stats Distance 215 nm / 399 km
Max Altitude 0 ft / 0 m
Waypoints 2
Social Downloads 4
Likes 0
Share VATSIM

Download

Looking for another format? Having issues loading an existing format? Contact us
Advertisement - Login to hide

Notes

Generated

Route

LEIB LEAM

ID Type Via Altitude Latitude Longitude Leg Dist Tot Dist Heading (true) Name
O LEIB APT - 0 ft / 0 m 38.86694˚ 1.35887˚ - 0 nm - -
O LEAM APT - 0 ft / 0 m 36.83972˚ -2.38726˚ 215 nm 215 nm 237° / 234° -

Altitude Profile

Advertisement - Login to hide

Weather


0- 5 10 15 20 25 30 35+ Temperature / ° C

Clouds and Precipitation
Forecast for 2017-12-17 18:00 UTC. Updated 25 minutes ago

Ground ~20,000 ft ~40,000 ft Winds

LEIB

Details ICAO LEIB (IBZ)
Name Ibiza
Region Spain
Timezone Europe/Madrid (UTC+1.0)
Stats Elevation 20 ft / 6 m (AMSL)
Location 38.872871° 1.373045°
Runways 1
Magnetic Variation 0.663° E

METAR

LEIB 171730Z 33004KT 9999 FEW030 08/04 Q1029 NOSIG

Decode

TAF

TAF LEIB 171400Z 1715/1815 36007KT 9999 FEW025 TX16/1812Z TN06/1806Z BECMG 1716/1718 VRB03KT BECMG 1810/1812 26010KT

Decode

Departure Runways

ID Width Length Bearing (true) Bearing (mag) Surface Threshold Offset Overrun Length
06 148 ft / 45 m 9,153 ft / 2,790 m 61.85° 61.19° Asphalt 0 ft / 0 m 213 ft / 65 m
24 148 ft / 45 m 9,153 ft / 2,790 m 241.86° 241.20° Asphalt 0 ft / 0 m 197 ft / 60 m

LEAM

Details ICAO LEAM (LEI)
Name Almeria
Region Spain
Timezone Unknown (UTC+0.0)
Stats Elevation 70 ft / 21 m (AMSL)
Location 36.843935° -2.370097°
Runways 1
Magnetic Variation 0.287° W

METAR

LEAM 171730Z 05007KT CAVOK 12/04 Q1028

Decode

TAF

TAF LEAM 171400Z 1715/1815 22006KT CAVOK TX16/1814Z TN06/1807Z BECMG 1715/1717 08010KT BECMG 1719/1721 35010KT BECMG 1811/1813 21008KT

Decode

Destination Runways

ID Width Length Bearing (true) Bearing (mag) Surface Threshold Offset Overrun Length
08 148 ft / 45 m 10,484 ft / 3,196 m 72.94° 73.23° Asphalt 492 ft / 150 m 191 ft / 58 m
26 148 ft / 45 m 10,484 ft / 3,196 m 252.96° 253.25° Asphalt 0 ft / 0 m 150 ft / 46 m

Approach Navaids

Runway Type Ident Frequency Range Bearing (true) Bearing (mag) Slope Elevation
26 Localiser IAM 109.90 MHz 18 nm / 33 km 252.94° 253.22° - 70 ft / 21 m (AMSL)
26 Glidescope IAM 109.90 MHz 10 nm / 19 km 252.95° 253.23° 3.00° 70 ft / 21 m (AMSL)
26 DME IAM 109.90 MHz 18 nm / 33 km - - - 95 ft / 29 m (AMSL)

Popular Alternatives